Time;durP1;ratioP1;P1;durP2;ratioP2;P2;SDS_P1;SDS_P2;PMS_P1;PMS_P2;Temp;Humidity;BMP_temperature;BMP_pressure;BME280_temperature;BME280_humidity;BME280_pressure;Samples;Min_cycle;Max_cycle;Signal;HPM_P1;HPM_P2
2021/08/31 00:00:49;;;;;;;16.70;15.70;;;21.30;42.10;;;;;;4935697;29;20212;-65
2021/08/31 00:03:14;;;;;;;16.53;15.23;;;21.30;42.10;;;;;;4935658;29;20172;-65
2021/08/31 00:05:40;;;;;;;14.63;13.77;;;21.30;42.10;;;;;;4936110;29;20604;-65
2021/08/31 00:08:05;;;;;;;16.30;15.30;;;21.30;42.00;;;;;;4935461;29;20196;-66
2021/08/31 00:10:31;;;;;;;14.87;13.90;;;21.30;42.00;;;;;;4935170;29;20219;-67
2021/08/31 00:12:56;;;;;;;16.20;15.10;;;21.30;42.10;;;;;;4934680;29;20267;-66
2021/08/31 00:15:22;;;;;;;16.30;15.10;;;21.30;42.70;;;;;;4933762;29;20200;-64
2021/08/31 00:17:47;;;;;;;15.13;14.23;;;21.30;42.10;;;;;;4934327;29;20178;-65
2021/08/31 00:20:13;;;;;;;16.73;15.60;;;21.30;42.10;;;;;;4934393;29;20200;-66
2021/08/31 00:22:38;;;;;;;16.17;15.17;;;21.30;42.10;;;;;;4935321;29;20525;-65
2021/08/31 00:25:06;;;;;;;15.33;14.43;;;21.30;42.10;;;;;;4935323;29;20254;-65
2021/08/31 00:27:32;;;;;;;16.30;15.20;;;21.20;42.00;;;;;;4935165;29;20276;-66
2021/08/31 00:29:58;;;;;;;15.43;14.33;;;21.30;42.20;;;;;;4934871;29;20479;-66
2021/08/31 00:32:24;;;;;;;15.10;14.20;;;21.30;42.10;;;;;;4935162;29;20415;-65
2021/08/31 00:34:50;;;;;;;15.33;14.33;;;21.20;42.00;;;;;;4935112;29;20416;-65
2021/08/31 00:37:15;;;;;;;15.90;14.90;;;21.20;42.00;;;;;;4935136;29;20180;-65
2021/08/31 00:39:41;;;;;;;15.50;14.50;;;21.20;42.00;;;;;;4934730;29;20518;-65
2021/08/31 00:42:06;;;;;;;14.90;14.00;;;21.20;42.10;;;;;;4934917;29;20188;-65
2021/08/31 00:44:32;;;;;;;14.13;13.23;;;21.30;42.10;;;;;;4934307;29;20665;-65
2021/08/31 00:47:05;;;;;;;14.80;13.90;;;21.20;42.00;;;;;;4934822;29;20176;-67
2021/08/31 00:49:34;;;;;;;13.80;13.00;;;21.20;42.10;;;;;;4934662;29;20658;-65
2021/08/31 00:52:01;;;;;;;14.80;13.80;;;21.20;42.10;;;;;;4934753;29;20903;-66
2021/08/31 00:54:29;;;;;;;15.20;14.20;;;21.20;42.10;;;;;;4934627;29;20412;-65
2021/08/31 00:57:03;;;;;;;13.53;12.63;;;21.20;42.10;;;;;;4934930;29;20416;-65
2021/08/31 00:59:29;;;;;;;15.27;14.27;;;21.20;42.10;;;;;;4934338;29;20444;-66
2021/08/31 01:01:55;;;;;;;13.90;13.00;;;21.20;42.10;;;;;;4934619;29;20447;-65
2021/08/31 01:04:28;;;;;;;14.20;13.27;;;21.20;42.10;;;;;;4934745;29;20416;-65
2021/08/31 01:06:55;;;;;;;13.83;12.90;;;21.20;42.10;;;;;;4934591;29;20423;-65
2021/08/31 01:09:21;;;;;;;14.53;13.27;;;21.20;42.10;;;;;;4934488;29;20436;-66
2021/08/31 01:11:48;;;;;;;13.67;12.87;;;21.20;42.20;;;;;;4934519;29;20463;-66
2021/08/31 01:14:14;;;;;;;13.70;12.90;;;21.20;42.20;;;;;;4934558;29;20424;-65
2021/08/31 01:16:40;;;;;;;14.87;13.80;;;21.20;42.10;;;;;;4934547;29;20483;-66
2021/08/31 01:19:05;;;;;;;13.17;12.27;;;21.20;42.20;;;;;;4934234;29;20432;-65
2021/08/31 01:21:32;;;;;;;14.87;13.97;;;21.20;42.20;;;;;;4934429;29;20180;-66
2021/08/31 01:23:58;;;;;;;12.80;12.00;;;21.20;42.10;;;;;;4934611;29;20190;-65
2021/08/31 01:26:25;;;;;;;13.47;12.67;;;21.20;42.10;;;;;;4934443;29;20427;-65
2021/08/31 01:28:51;;;;;;;13.40;12.50;;;21.20;42.20;;;;;;4934270;29;20424;-65
2021/08/31 01:31:17;;;;;;;13.03;12.20;;;21.10;42.00;;;;;;4934355;29;20459;-65
2021/08/31 01:33:43;;;;;;;14.43;13.37;;;21.20;42.20;;;;;;4934346;29;20486;-65
2021/08/31 01:36:21;;;;;;;13.57;12.67;;;21.20;42.20;;;;;;4934258;29;20176;-65
2021/08/31 01:38:52;;;;;;;11.80;11.10;;;21.20;42.20;;;;;;4934241;29;20502;-65
2021/08/31 01:41:18;;;;;;;13.00;12.20;;;21.20;42.20;;;;;;4934452;29;20420;-65
2021/08/31 01:43:44;;;;;;;13.53;12.63;;;21.10;42.10;;;;;;4934400;29;20427;-64
2021/08/31 01:46:10;;;;;;;12.87;12.03;;;21.20;42.20;;;;;;4934263;29;20422;-65
2021/08/31 01:48:35;;;;;;;12.90;12.07;;;21.10;42.10;;;;;;4933973;29;20595;-67
2021/08/31 01:51:01;;;;;;;12.77;12.00;;;21.10;42.20;;;;;;4934150;29;20572;-65
2021/08/31 01:53:27;;;;;;;13.60;12.70;;;21.20;42.20;;;;;;4934175;29;20243;-65
2021/08/31 01:55:52;;;;;;;13.83;13.03;;;21.20;42.20;;;;;;4936771;29;20183;-65
2021/08/31 01:58:18;;;;;;;13.40;12.40;;;21.20;42.20;;;;;;4937912;29;20778;-65
2021/08/31 02:00:44;;;;;;;12.77;11.97;;;21.10;42.20;;;;;;4937690;29;20266;-64
2021/08/31 02:03:09;;;;;;;13.00;12.20;;;21.20;42.20;;;;;;4936555;29;20180;-65
2021/08/31 02:05:35;;;;;;;12.47;11.77;;;21.10;42.10;;;;;;4937791;29;20263;-65
2021/08/31 02:08:00;;;;;;;12.90;12.00;;;21.10;42.10;;;;;;4937915;29;20601;-66
2021/08/31 02:10:26;;;;;;;12.63;11.83;;;21.10;42.10;;;;;;4937386;29;20211;-64
2021/08/31 02:12:52;;;;;;;11.80;11.03;;;21.10;42.10;;;;;;4937684;29;20172;-65
2021/08/31 02:15:18;;;;;;;12.57;11.77;;;21.10;42.00;;;;;;4937567;29;20190;-65
2021/08/31 02:17:44;;;;;;;12.13;11.43;;;21.10;42.10;;;;;;4937491;29;20180;-65
2021/08/31 02:20:10;;;;;;;12.90;12.10;;;21.10;42.10;;;;;;4937267;29;20442;-66
2021/08/31 02:22:37;;;;;;;13.00;12.20;;;21.10;42.10;;;;;;4937415;29;20271;-65
2021/08/31 02:25:03;;;;;;;12.43;11.63;;;21.10;42.20;;;;;;4937470;29;20831;-66
2021/08/31 02:27:28;;;;;;;11.60;10.90;;;21.10;42.10;;;;;;4937407;29;20463;-65
2021/08/31 02:29:54;;;;;;;11.87;11.07;;;21.10;42.10;;;;;;4937029;29;20471;-65
2021/08/31 02:32:19;;;;;;;12.40;11.70;;;21.10;42.10;;;;;;4937243;29;20176;-65
2021/08/31 02:34:45;;;;;;;12.53;11.73;;;21.10;42.20;;;;;;4937228;29;20180;-66
2021/08/31 02:37:11;;;;;;;12.53;11.63;;;21.10;42.10;;;;;;4937241;29;20173;-64
2021/08/31 02:39:36;;;;;;;13.20;12.20;;;21.10;42.10;;;;;;4936927;29;20868;-65
2021/08/31 02:42:02;;;;;;;11.80;11.10;;;21.10;42.40;;;;;;4937263;29;20179;-64
2021/08/31 02:44:27;;;;;;;12.33;11.50;;;21.10;42.10;;;;;;4937078;29;20172;-64
2021/08/31 02:46:53;;;;;;;12.00;11.20;;;21.10;42.00;;;;;;4936948;29;20182;-66
2021/08/31 02:49:19;;;;;;;11.00;10.30;;;21.10;42.10;;;;;;4936620;29;20198;-65
2021/08/31 02:51:44;;;;;;;11.53;10.83;;;21.10;42.10;;;;;;4936918;29;20292;-65
2021/08/31 02:54:10;;;;;;;12.90;12.10;;;21.10;42.10;;;;;;4936899;29;20176;-65
2021/08/31 02:56:36;;;;;;;10.63;10.00;;;21.10;42.20;;;;;;4936771;29;20177;-66
2021/08/31 02:59:01;;;;;;;11.87;11.17;;;21.10;42.10;;;;;;4936624;29;20184;-64
2021/08/31 03:02:04;;;;;;;11.37;10.67;;;21.10;42.10;;;;;;4936657;29;20219;-65
2021/08/31 03:04:25;;;;;;;11.80;10.90;;;21.10;42.10;;;;;;4936547;29;20186;-64
2021/08/31 03:06:50;;;;;;;11.30;10.40;;;21.10;42.10;;;;;;4935722;29;20433;-64
2021/08/31 03:09:16;;;;;;;11.23;10.53;;;21.10;42.00;;;;;;4936398;29;20432;-65
2021/08/31 03:11:42;;;;;;;10.70;10.00;;;21.10;42.10;;;;;;4936490;29;20267;-66
2021/08/31 03:14:07;;;;;;;12.20;11.40;;;21.10;42.10;;;;;;4936597;29;20219;-64
2021/08/31 03:16:33;;;;;;;11.10;10.40;;;21.10;42.10;;;;;;4936532;29;20179;-65
2021/08/31 03:18:58;;;;;;;11.10;10.30;;;21.10;42.10;;;;;;4936194;29;20232;-64
2021/08/31 03:21:24;;;;;;;11.43;10.73;;;21.10;42.20;;;;;;4936431;29;20191;-65
2021/08/31 03:23:49;;;;;;;10.97;10.27;;;21.10;42.10;;;;;;4936457;29;20215;-64
2021/08/31 03:26:15;;;;;;;10.20;9.50;;;21.10;42.10;;;;;;4936333;29;20242;-65
2021/08/31 03:28:40;;;;;;;10.73;10.03;;;21.10;42.20;;;;;;4936029;29;20275;-65
2021/08/31 03:31:06;;;;;;;11.30;10.60;;;21.10;42.10;;;;;;4936146;29;20764;-65
2021/08/31 03:33:32;;;;;;;11.53;10.83;;;21.10;42.20;;;;;;4936245;29;20180;-65
2021/08/31 03:35:57;;;;;;;10.60;9.90;;;21.10;42.20;;;;;;4936140;29;20183;-65
2021/08/31 03:38:23;;;;;;;11.43;10.73;;;21.00;42.10;;;;;;4935916;29;20184;-65
2021/08/31 03:40:48;;;;;;;11.10;10.43;;;21.10;42.20;;;;;;4936037;29;20200;-64
2021/08/31 03:43:14;;;;;;;10.03;9.43;;;21.10;42.20;;;;;;4935971;29;20714;-64
2021/08/31 03:45:39;;;;;;;10.87;10.27;;;21.10;42.20;;;;;;4936041;29;20594;-65
2021/08/31 03:48:05;;;;;;;10.23;9.53;;;21.10;42.10;;;;;;4936054;29;20187;-66
2021/08/31 03:50:31;;;;;;;10.17;9.57;;;21.00;42.10;;;;;;4935504;29;20216;-64
2021/08/31 03:52:56;;;;;;;10.97;10.27;;;21.10;42.20;;;;;;4935898;29;20416;-64
2021/08/31 03:55:22;;;;;;;10.80;9.97;;;21.10;42.10;;;;;;4935795;29;20296;-64
2021/08/31 03:57:48;;;;;;;11.27;10.50;;;21.00;42.00;;;;;;4935661;29;20575;-65
2021/08/31 04:00:14;;;;;;;10.57;9.93;;;21.00;42.10;;;;;;4935281;29;20196;-66
2021/08/31 04:02:39;;;;;;;9.97;9.27;;;21.00;42.00;;;;;;4935689;29;20443;-65
2021/08/31 04:05:05;;;;;;;11.03;10.27;;;21.00;42.00;;;;;;4935647;29;20408;-64
2021/08/31 04:07:31;;;;;;;10.70;10.00;;;21.00;42.00;;;;;;4935596;29;20655;-64
2021/08/31 04:09:56;;;;;;;10.77;10.10;;;21.10;42.00;;;;;;4935174;29;20462;-64
2021/08/31 04:12:22;;;;;;;9.87;9.23;;;21.00;42.10;;;;;;4935379;29;20180;-65
2021/08/31 04:14:48;;;;;;;11.10;10.20;;;21.00;42.20;;;;;;4935632;29;20311;-65
2021/08/31 04:17:14;;;;;;;10.77;9.97;;;21.00;42.30;;;;;;4935192;29;20172;-65
2021/08/31 04:19:40;;;;;;;10.53;9.53;;;21.00;42.50;;;;;;4935156;29;20200;-64
2021/08/31 04:22:05;;;;;;;9.63;9.03;;;21.10;42.60;;;;;;4935429;29;20970;-64
2021/08/31 04:24:31;;;;;;;11.53;10.63;;;21.00;42.60;;;;;;4935318;29;20176;-64
2021/08/31 04:26:56;;;;;;;10.67;10.07;;;21.00;42.70;;;;;;4935202;29;20267;-65
2021/08/31 04:29:22;;;;;;;10.23;9.53;;;21.00;42.70;;;;;;4935002;29;20250;-66
2021/08/31 04:31:48;;;;;;;9.70;9.10;;;21.00;42.70;;;;;;4935133;29;20216;-65
2021/08/31 04:34:13;;;;;;;10.63;9.83;;;21.00;42.70;;;;;;4934988;29;20519;-65
2021/08/31 04:36:39;;;;;;;10.00;9.40;;;21.00;42.70;;;;;;4935094;29;20259;-64
2021/08/31 04:39:05;;;;;;;10.20;9.50;;;21.00;42.70;;;;;;4934701;29;20188;-67
2021/08/31 04:41:31;;;;;;;10.13;9.43;;;21.00;42.90;;;;;;4934304;29;20419;-66
2021/08/31 04:43:56;;;;;;;10.80;10.10;;;21.00;43.10;;;;;;4934534;29;20246;-64
2021/08/31 04:46:22;;;;;;;11.00;10.30;;;21.00;43.00;;;;;;4934821;29;20764;-65
2021/08/31 04:48:47;;;;;;;9.63;9.03;;;21.10;43.00;;;;;;4934656;29;20172;-66
2021/08/31 04:51:13;;;;;;;9.60;9.00;;;21.00;43.10;;;;;;4934672;29;20204;-66
2021/08/31 04:53:38;;;;;;;10.43;9.43;;;21.10;43.10;;;;;;4933568;29;20179;-65
2021/08/31 04:56:04;;;;;;;9.73;9.13;;;21.10;43.00;;;;;;4933372;29;20199;-66
2021/08/31 04:58:29;;;;;;;9.93;9.20;;;21.00;43.00;;;;;;4934456;29;20596;-65
2021/08/31 05:00:55;;;;;;;11.47;10.67;;;21.00;43.00;;;;;;4933332;29;20294;-65
2021/08/31 05:03:21;;;;;;;11.73;11.03;;;21.00;43.00;;;;;;4934922;29;20658;-66
2021/08/31 05:05:46;;;;;;;14.53;13.63;;;21.00;43.00;;;;;;4934574;29;20191;-66
2021/08/31 05:08:12;;;;;;;27.67;26.03;;;21.10;42.80;;;;;;4934817;29;20666;-66
2021/08/31 05:10:37;;;;;;;30.50;28.60;;;21.10;43.20;;;;;;4934110;29;20510;-66
2021/08/31 05:13:03;;;;;;;37.87;35.63;;;21.10;43.20;;;;;;4934494;29;20676;-66
2021/08/31 05:15:28;;;;;;;37.83;35.63;;;21.10;43.10;;;;;;4934449;29;20204;-66
2021/08/31 05:17:55;;;;;;;48.33;45.43;;;21.10;43.20;;;;;;4934744;29;20574;-65
2021/08/31 05:20:21;;;;;;;51.57;48.67;;;21.10;43.10;;;;;;4934234;29;20192;-65
2021/08/31 05:22:49;;;;;;;45.33;42.53;;;21.10;43.30;;;;;;4934592;29;20408;-66
2021/08/31 05:25:15;;;;;;;46.17;43.27;;;21.10;43.60;;;;;;4934285;29;20422;-66
2021/08/31 05:27:40;;;;;;;42.87;40.17;;;21.10;43.40;;;;;;4934452;29;20783;-65
2021/08/31 05:30:06;;;;;;;40.53;38.10;;;21.10;44.00;;;;;;4935693;29;20306;-66
2021/08/31 05:32:32;;;;;;;37.87;35.57;;;21.10;43.30;;;;;;4938409;29;20168;-67
2021/08/31 05:34:57;;;;;;;34.00;31.80;;;21.10;43.20;;;;;;4938483;29;20462;-65
2021/08/31 05:37:23;;;;;;;36.13;33.83;;;21.10;43.00;;;;;;4938266;29;20219;-65
2021/08/31 05:39:48;;;;;;;34.60;32.60;;;21.10;42.80;;;;;;4937831;29;20680;-65
2021/08/31 05:42:14;;;;;;;30.30;28.50;;;21.10;42.90;;;;;;4938103;29;20191;-66
2021/08/31 05:44:41;;;;;;;32.10;30.20;;;21.10;42.80;;;;;;4938292;29;20180;-65
2021/08/31 05:47:07;;;;;;;30.97;29.07;;;21.10;43.60;;;;;;4938093;29;20196;-65
2021/08/31 05:49:33;;;;;;;29.50;27.70;;;21.10;42.80;;;;;;4937983;29;20516;-66
2021/08/31 05:52:00;;;;;;;31.57;29.67;;;21.10;42.80;;;;;;4938009;29;20953;-66
2021/08/31 05:54:26;;;;;;;32.03;30.03;;;21.10;42.80;;;;;;4938343;29;20408;-66
2021/08/31 05:57:00;;;;;;;33.73;31.50;;;21.10;42.80;;;;;;4938185;29;20408;-65
2021/08/31 05:59:25;;;;;;;29.43;27.23;;;21.10;42.80;;;;;;4937838;29;21013;-66
2021/08/31 06:01:51;;;;;;;23.27;21.60;;;21.10;43.00;;;;;;4938438;29;20518;-66
2021/08/31 06:04:16;;;;;;;22.60;20.90;;;21.10;42.90;;;;;;4937021;29;20199;-66
2021/08/31 06:06:42;;;;;;;20.53;19.10;;;21.00;42.70;;;;;;4937929;29;20184;-66
2021/08/31 06:09:08;;;;;;;17.70;16.40;;;21.10;42.80;;;;;;4937412;29;20204;-66
2021/08/31 06:11:40;;;;;;;17.30;15.93;;;21.10;42.80;;;;;;4937832;29;20210;-66
2021/08/31 06:14:07;;;;;;;15.50;14.40;;;21.10;42.70;;;;;;4937968;29;20227;-66
2021/08/31 06:16:33;;;;;;;16.77;15.47;;;21.00;42.50;;;;;;4937837;29;20497;-65
2021/08/31 06:18:59;;;;;;;16.80;15.27;;;21.00;42.70;;;;;;4937334;29;20911;-65
2021/08/31 06:21:25;;;;;;;13.33;12.33;;;21.10;42.60;;;;;;4937568;29;20448;-66
2021/08/31 06:23:50;;;;;;;12.97;12.07;;;21.10;42.50;;;;;;4937437;29;20992;-65
2021/08/31 06:26:16;;;;;;;13.67;12.57;;;21.10;42.30;;;;;;4937483;29;20195;-65
2021/08/31 06:28:41;;;;;;;13.50;12.40;;;21.00;42.20;;;;;;4937269;29;20212;-67
2021/08/31 06:31:07;;;;;;;13.73;12.37;;;21.00;42.20;;;;;;4937358;29;20218;-65
2021/08/31 06:33:32;;;;;;;13.30;11.90;;;21.00;42.20;;;;;;4937553;29;20172;-65
2021/08/31 06:35:58;;;;;;;13.70;12.33;;;21.00;42.30;;;;;;4937392;29;20253;-65
2021/08/31 06:38:23;;;;;;;12.37;11.37;;;21.00;42.40;;;;;;4937329;29;20184;-66
2021/08/31 06:40:49;;;;;;;11.80;10.60;;;21.00;42.30;;;;;;4937363;29;20191;-66
2021/08/31 06:43:15;;;;;;;12.57;11.33;;;21.00;42.30;;;;;;4936006;29;20176;-66
2021/08/31 06:45:40;;;;;;;11.00;10.00;;;21.00;42.20;;;;;;4935888;29;20176;-66
2021/08/31 06:48:06;;;;;;;15.10;10.50;;;21.00;42.20;;;;;;4937208;29;20184;-66
2021/08/31 06:50:32;;;;;;;12.50;9.80;;;21.00;42.20;;;;;;4929673;29;20204;-67
2021/08/31 06:52:58;;;;;;;10.57;9.60;;;21.00;42.30;;;;;;4936648;29;20176;-67
2021/08/31 06:55:23;;;;;;;9.80;8.80;;;21.00;42.20;;;;;;4937025;29;20830;-66
2021/08/31 06:57:49;;;;;;;9.40;8.50;;;21.00;42.30;;;;;;4936537;29;20190;-66
2021/08/31 07:00:15;;;;;;;12.00;9.37;;;21.00;42.30;;;;;;4936055;29;20241;-66
2021/08/31 07:02:40;;;;;;;10.17;9.23;;;21.00;42.40;;;;;;4936490;29;20195;-67
2021/08/31 07:05:06;;;;;;;12.00;9.43;;;21.00;42.40;;;;;;4936548;29;20438;-66
2021/08/31 07:07:32;;;;;;;9.53;8.53;;;21.00;42.30;;;;;;4936159;29;20187;-66
2021/08/31 07:09:58;;;;;;;9.03;8.10;;;21.00;42.30;;;;;;4936470;29;20808;-66
2021/08/31 07:12:24;;;;;;;12.23;8.87;;;21.00;42.30;;;;;;4936593;29;20212;-66
2021/08/31 07:14:51;;;;;;;9.07;8.17;;;21.00;42.40;;;;;;4936389;29;20886;-66
2021/08/31 07:17:17;;;;;;;9.10;8.30;;;21.00;43.10;;;;;;4936568;29;20552;-67
2021/08/31 07:19:43;;;;;;;10.10;8.87;;;21.00;42.30;;;;;;4936215;29;20448;-67
2021/08/31 07:22:09;;;;;;;8.23;7.60;;;21.00;42.20;;;;;;4935943;29;20424;-65
2021/08/31 07:24:34;;;;;;;7.77;7.07;;;21.00;42.10;;;;;;4936446;29;20172;-66
2021/08/31 07:26:59;;;;;;;9.40;7.63;;;21.00;42.00;;;;;;4936195;29;20411;-66
2021/08/31 07:29:25;;;;;;;8.40;7.63;;;21.00;41.90;;;;;;4935441;29;20200;-65
2021/08/31 07:31:52;;;;;;;9.30;8.03;;;21.10;41.80;;;;;;4936054;29;20582;-66
2021/08/31 07:34:18;;;;;;;8.33;7.73;;;21.10;41.70;;;;;;4936239;29;20176;-66
2021/08/31 07:36:45;;;;;;;8.23;7.53;;;21.00;41.70;;;;;;4935926;29;20420;-66
2021/08/31 07:39:11;;;;;;;8.40;7.60;;;21.10;41.80;;;;;;4935649;29;20681;-65
2021/08/31 07:41:36;;;;;;;7.90;7.27;;;21.10;41.90;;;;;;4935996;29;20424;-66
2021/08/31 07:44:02;;;;;;;8.57;7.77;;;21.10;42.00;;;;;;4935877;29;20495;-66
2021/08/31 07:46:28;;;;;;;8.43;7.73;;;21.10;42.00;;;;;;4936062;29;20208;-65
2021/08/31 07:48:53;;;;;;;9.20;8.40;;;21.10;42.10;;;;;;4935810;29;20539;-65
2021/08/31 07:51:19;;;;;;;8.37;7.87;;;21.10;42.20;;;;;;4935575;29;20482;-65
2021/08/31 07:53:45;;;;;;;6.90;6.40;;;21.10;42.20;;;;;;4935368;29;20179;-64
2021/08/31 07:56:11;;;;;;;8.23;7.53;;;21.10;42.20;;;;;;4935653;29;20180;-65
2021/08/31 07:58:36;;;;;;;7.83;7.30;;;21.10;42.20;;;;;;4936202;29;20224;-65
2021/08/31 08:01:03;;;;;;;7.80;7.17;;;21.10;42.20;;;;;;4936907;29;20223;-65
2021/08/31 08:03:29;;;;;;;7.40;6.70;;;21.10;42.30;;;;;;4937084;29;20207;-66
2021/08/31 08:05:54;;;;;;;8.00;7.20;;;21.10;42.20;;;;;;4937534;29;20424;-65
2021/08/31 08:08:20;;;;;;;7.13;6.63;;;21.10;42.30;;;;;;4935553;29;20673;-65
2021/08/31 08:10:45;;;;;;;7.37;6.87;;;21.10;42.20;;;;;;4935207;29;20694;-65
2021/08/31 08:13:11;;;;;;;8.00;7.30;;;21.10;42.30;;;;;;4935537;29;20263;-64
2021/08/31 08:15:37;;;;;;;7.33;6.60;;;21.10;42.30;;;;;;4935240;29;20184;-64
2021/08/31 08:18:02;;;;;;;7.63;7.10;;;21.20;42.30;;;;;;4935481;29;20227;-65
2021/08/31 08:20:28;;;;;;;7.80;7.20;;;21.20;42.20;;;;;;4935287;29;20192;-64
2021/08/31 08:22:53;;;;;;;8.00;7.33;;;21.20;42.20;;;;;;4926920;29;20180;-64
2021/08/31 08:25:19;;;;;;;8.30;7.60;;;21.20;42.10;;;;;;4935343;29;20176;-63
2021/08/31 08:27:45;;;;;;;8.17;7.47;;;21.20;42.20;;;;;;4935401;29;20670;-62
2021/08/31 08:30:12;;;;;;;7.50;7.00;;;21.20;42.10;;;;;;4934550;29;20287;-66
2021/08/31 08:32:38;;;;;;;7.33;6.83;;;21.10;42.20;;;;;;4935258;29;20447;-64
2021/08/31 08:35:06;;;;;;;7.60;7.00;;;21.20;42.30;;;;;;4935057;29;20921;-64
2021/08/31 08:37:32;;;;;;;7.47;6.87;;;21.20;42.30;;;;;;4935032;29;20438;-64
2021/08/31 08:39:57;;;;;;;7.80;7.10;;;21.20;42.20;;;;;;4934590;29;20527;-66
2021/08/31 08:42:23;;;;;;;7.10;6.60;;;21.20;42.40;;;;;;4935035;29;20176;-65
2021/08/31 08:44:48;;;;;;;7.73;7.13;;;21.20;42.50;;;;;;4934811;29;20180;-65
2021/08/31 08:47:14;;;;;;;7.20;6.70;;;21.20;42.40;;;;;;4934719;29;20546;-64
2021/08/31 08:49:43;;;;;;;7.30;6.70;;;21.20;42.40;;;;;;4934596;29;20200;-65
2021/08/31 08:52:09;;;;;;;7.27;6.67;;;21.10;42.40;;;;;;4934481;29;20969;-64
2021/08/31 08:54:35;;;;;;;7.60;7.00;;;21.20;42.40;;;;;;4934868;29;20408;-65
2021/08/31 08:57:00;;;;;;;8.37;7.67;;;21.20;42.60;;;;;;4934566;29;20648;-63
2021/08/31 08:59:26;;;;;;;8.77;8.17;;;21.20;42.70;;;;;;4934267;29;20584;-64
2021/08/31 09:01:54;;;;;;;7.50;7.00;;;21.20;42.60;;;;;;4934692;29;20192;-67
2021/08/31 09:04:40;;;;;;;7.07;6.40;;;21.20;42.70;;;;;;4933875;29;20203;-66
2021/08/31 09:07:16;;;;;;;8.70;8.10;;;21.20;42.70;;;;;;4934635;29;20423;-66
2021/08/31 09:09:41;;;;;;;8.30;7.57;;;21.20;42.60;;;;;;4934086;29;20457;-64
2021/08/31 09:12:07;;;;;;;8.23;7.60;;;21.20;42.60;;;;;;4934694;29;20459;-66
2021/08/31 09:14:36;;;;;;;7.70;7.20;;;21.20;42.80;;;;;;4934048;29;20263;-65
2021/08/31 09:17:07;;;;;;;8.07;7.43;;;21.20;42.90;;;;;;4934757;29;20180;-62
2021/08/31 09:19:38;;;;;;;7.30;6.80;;;21.20;42.80;;;;;;4934293;29;20434;-65
2021/08/31 09:22:24;;;;;;;8.13;7.33;;;21.20;42.90;;;;;;4934123;29;20411;-65
2021/08/31 09:25:00;;;;;;;7.43;6.90;;;21.30;43.00;;;;;;4933975;29;20860;-66
2021/08/31 09:27:37;;;;;;;7.47;6.97;;;21.30;43.10;;;;;;4934228;29;20730;-66
2021/08/31 09:30:24;;;;;;;7.53;6.90;;;21.30;43.10;;;;;;4933637;29;20435;-65
2021/08/31 09:33:18;;;;;;;7.57;6.87;;;21.30;43.00;;;;;;4934242;29;20411;-65
2021/08/31 09:35:58;;;;;;;7.93;7.23;;;21.30;43.00;;;;;;4925922;29;20487;-65
2021/08/31 09:38:23;;;;;;;7.73;6.90;;;21.30;43.00;;;;;;4934120;29;20518;-66
2021/08/31 09:40:52;;;;;;;8.13;7.53;;;21.30;42.90;;;;;;4932911;29;20531;-66
2021/08/31 09:43:21;;;;;;;7.27;6.57;;;21.30;42.90;;;;;;4934349;29;20218;-66
2021/08/31 09:45:48;;;;;;;9.23;6.87;;;21.30;42.90;;;;;;4933880;29;20745;-66
2021/08/31 09:48:16;;;;;;;8.33;7.60;;;21.30;42.90;;;;;;4934203;29;20470;-66
2021/08/31 09:50:45;;;;;;;7.40;6.87;;;21.30;42.90;;;;;;4934164;29;20456;-66
2021/08/31 09:53:14;;;;;;;6.87;6.37;;;21.30;42.90;;;;;;4933922;29;20454;-66
2021/08/31 09:55:42;;;;;;;7.60;7.00;;;21.30;42.90;;;;;;4934226;29;20411;-66
2021/08/31 09:58:32;;;;;;;7.30;6.60;;;21.30;42.90;;;;;;4933876;29;20416;-66
2021/08/31 10:00:58;;;;;;;7.17;6.57;;;21.30;42.80;;;;;;4933904;29;20467;-64
2021/08/31 10:03:25;;;;;;;9.13;7.30;;;21.30;42.80;;;;;;4933847;29;20424;-65
2021/08/31 10:05:52;;;;;;;7.20;6.60;;;21.30;42.70;;;;;;4934010;29;20643;-64
2021/08/31 10:08:19;;;;;;;7.67;7.07;;;21.30;42.60;;;;;;4933811;29;20775;-66
2021/08/31 10:10:48;;;;;;;7.40;6.80;;;21.30;42.40;;;;;;4933775;29;20460;-66
2021/08/31 10:13:20;;;;;;;7.70;7.10;;;21.30;42.40;;;;;;4934147;29;20456;-64
2021/08/31 10:15:54;;;;;;;6.13;5.73;;;21.30;42.30;;;;;;4934820;29;20419;-63
2021/08/31 10:18:22;;;;;;;7.10;6.60;;;21.30;42.50;;;;;;4937480;29;20925;-64
2021/08/31 10:21:09;;;;;;;8.23;7.50;;;21.30;42.30;;;;;;4937289;29;20431;-64
2021/08/31 10:23:46;;;;;;;7.07;6.47;;;21.30;43.00;;;;;;4937338;29;20420;-65
2021/08/31 10:26:31;;;;;;;8.63;6.63;;;21.30;42.00;;;;;;4937577;29;20420;-65
2021/08/31 10:29:16;;;;;;;6.30;5.83;;;21.30;41.80;;;;;;4936965;29;20917;-65
2021/08/31 10:31:46;;;;;;;7.73;7.00;;;21.30;41.80;;;;;;4937173;29;20470;-64
2021/08/31 10:34:30;;;;;;;7.27;6.77;;;21.30;41.80;;;;;;4937484;29;20439;-65
2021/08/31 10:37:08;;;;;;;6.70;6.20;;;21.30;41.70;;;;;;4937116;29;20443;-65
2021/08/31 10:39:53;;;;;;;7.80;7.13;;;21.30;41.70;;;;;;4937079;29;20431;-65
2021/08/31 10:42:24;;;;;;;6.93;6.37;;;21.30;41.80;;;;;;4937458;29;20557;-66
2021/08/31 10:44:52;;;;;;;11.63;7.00;;;21.30;41.70;;;;;;4936836;29;20763;-64
2021/08/31 10:47:26;;;;;;;9.53;7.43;;;21.30;41.50;;;;;;4936988;29;20408;-65
2021/08/31 10:49:57;;;;;;;22.67;8.57;;;21.30;41.50;;;;;;4936685;29;20435;-66
2021/08/31 10:52:35;;;;;;;19.43;8.23;;;21.30;41.60;;;;;;4936484;29;20451;-65
2021/08/31 10:55:01;;;;;;;22.03;8.20;;;21.30;41.50;;;;;;4937064;29;20419;-65
2021/08/31 10:57:36;;;;;;;17.47;7.43;;;21.30;42.20;;;;;;4937043;29;20431;-65
2021/08/31 11:00:12;;;;;;;28.87;10.20;;;21.30;41.50;;;;;;4936351;29;20455;-64
2021/08/31 11:02:49;;;;;;;21.43;10.50;;;21.30;41.50;;;;;;4937021;29;20503;-66
2021/08/31 11:05:24;;;;;;;17.47;8.87;;;21.30;41.50;;;;;;4936362;29;20515;-65
2021/08/31 11:07:57;;;;;;;16.70;8.80;;;21.30;41.90;;;;;;4936529;29;20936;-65
2021/08/31 11:10:24;;;;;;;21.23;8.73;;;21.30;41.80;;;;;;4936373;29;20466;-67
2021/08/31 11:12:50;;;;;;;22.00;8.90;;;21.30;41.80;;;;;;4936399;29;20522;-67
2021/08/31 11:15:35;;;;;;;18.70;8.77;;;21.30;42.10;;;;;;4936438;29;20408;-66
2021/08/31 11:18:00;;;;;;;15.77;8.10;;;21.30;41.80;;;;;;4936514;29;20427;-65
2021/08/31 11:20:30;;;;;;;15.90;7.97;;;21.30;42.00;;;;;;4935885;29;20431;-66
2021/08/31 11:23:31;;;;;;;11.73;7.47;;;21.30;42.00;;;;;;4936516;29;20207;-65
2021/08/31 11:26:02;;;;;;;16.00;7.37;;;21.30;41.90;;;;;;4915103;29;20447;-65
2021/08/31 11:28:30;;;;;;;17.70;8.00;;;21.30;41.70;;;;;;4931100;29;20432;-67
2021/08/31 11:30:55;;;;;;;9.60;7.00;;;21.30;41.60;;;;;;4936341;29;20996;-65
2021/08/31 11:33:26;;;;;;;11.93;7.77;;;21.30;41.50;;;;;;4936271;29;20412;-66
2021/08/31 11:35:57;;;;;;;15.77;7.33;;;21.30;41.50;;;;;;4936220;29;20204;-65
2021/08/31 11:38:32;;;;;;;9.80;6.73;;;21.30;41.40;;;;;;4935860;29;20931;-65
2021/08/31 11:41:25;;;;;;;10.10;7.40;;;21.30;41.50;;;;;;4936270;29;20849;-65
2021/08/31 11:43:56;;;;;;;8.23;7.40;;;21.30;41.50;;;;;;4936024;29;20802;-66
2021/08/31 11:46:27;;;;;;;10.40;6.50;;;21.30;41.50;;;;;;4936030;29;20467;-66
2021/08/31 11:49:08;;;;;;;7.87;6.90;;;21.30;41.50;;;;;;4935811;29;20479;-66
2021/08/31 11:51:35;;;;;;;11.63;7.30;;;21.30;41.50;;;;;;4935380;29;20495;-65
2021/08/31 11:54:09;;;;;;;9.07;6.77;;;21.30;41.50;;;;;;4935935;29;20536;-64
2021/08/31 11:56:37;;;;;;;7.50;6.80;;;21.30;41.40;;;;;;4935870;29;20412;-65
2021/08/31 11:59:03;;;;;;;7.50;6.87;;;21.30;41.50;;;;;;4935053;29;20408;-66
2021/08/31 12:01:30;;;;;;;8.27;7.43;;;21.30;41.70;;;;;;4935651;29;20983;-66
2021/08/31 12:04:13;;;;;;;8.90;7.30;;;21.40;41.60;;;;;;4935671;29;20184;-66
2021/08/31 12:06:39;;;;;;;7.37;6.70;;;21.30;41.70;;;;;;4935396;29;20411;-66
2021/08/31 12:09:04;;;;;;;7.63;6.77;;;21.40;41.60;;;;;;4935497;29;20412;-67
2021/08/31 12:11:32;;;;;;;7.50;6.57;;;21.40;41.60;;;;;;4934976;29;20199;-66
2021/08/31 12:13:58;;;;;;;7.47;6.77;;;21.40;41.50;;;;;;4935551;29;20180;-65
2021/08/31 12:16:23;;;;;;;6.33;5.80;;;21.30;41.50;;;;;;4935467;29;20415;-67
2021/08/31 12:18:49;;;;;;;6.97;6.30;;;21.40;41.60;;;;;;4935418;29;20258;-65
2021/08/31 12:21:20;;;;;;;7.40;6.00;;;21.30;41.40;;;;;;4935492;29;20195;-67
2021/08/31 12:23:47;;;;;;;7.40;6.80;;;21.40;41.40;;;;;;4935419;29;20272;-67
2021/08/31 12:26:30;;;;;;;6.20;5.70;;;21.30;41.10;;;;;;4935193;29;20430;-67
2021/08/31 12:29:08;;;;;;;7.50;6.80;;;21.40;41.20;;;;;;4935291;29;20419;-67
2021/08/31 12:31:35;;;;;;;6.70;6.10;;;21.40;41.20;;;;;;4934978;29;20467;-67
2021/08/31 12:34:01;;;;;;;6.93;6.03;;;21.40;41.30;;;;;;4934922;29;20408;-67
2021/08/31 12:36:32;;;;;;;7.70;7.10;;;21.40;41.20;;;;;;4935117;29;20440;-67
2021/08/31 12:38:58;;;;;;;7.60;6.10;;;21.40;41.10;;;;;;4934770;29;20412;-64